createdAt,value
2022-10-18T00:04:48.210Z,70.08
2022-10-18T00:10:19.157Z,69.70
2022-10-18T00:15:58.493Z,69.95
2022-10-18T00:21:29.832Z,69.68
2022-10-18T00:27:00.986Z,69.74
2022-10-18T00:32:32.079Z,69.95
2022-10-18T00:38:03.280Z,69.75
2022-10-18T00:44:10.967Z,69.95
2022-10-18T00:49:50.723Z,69.87
2022-10-18T00:55:22.061Z,69.90
2022-10-18T01:00:53.140Z,70.06
2022-10-18T01:06:24.307Z,70.33
2022-10-18T01:12:08.179Z,70.18
2022-10-18T01:17:48.341Z,70.06
2022-10-18T01:23:33.959Z,70.18
2022-10-18T01:29:32.365Z,69.55
2022-10-18T01:35:07.295Z,70.10
2022-10-18T01:40:40.242Z,69.90
2022-10-18T01:46:14.970Z,70.08
2022-10-18T01:51:46.000Z,69.89
2022-10-18T01:57:29.107Z,70.16
2022-10-18T02:03:15.019Z,69.87
2022-10-18T02:09:03.988Z,70.09
2022-10-18T02:14:35.315Z,70.15
2022-10-18T02:20:09.352Z,69.52
2022-10-18T02:25:40.671Z,69.67
2022-10-18T02:31:17.787Z,69.75
2022-10-18T02:36:53.052Z,69.92
2022-10-18T02:42:24.045Z,69.59
2022-10-18T02:47:55.069Z,69.91
2022-10-18T02:53:26.238Z,70.02
2022-10-18T02:58:57.129Z,69.95
2022-10-18T03:10:05.056Z,70.15
2022-10-18T03:15:36.304Z,70.10
2022-10-18T03:21:08.275Z,69.84
2022-10-18T03:26:39.267Z,70.21
2022-10-18T03:32:10.271Z,69.94
2022-10-18T03:37:41.492Z,70.27
2022-10-18T03:43:12.424Z,70.18
2022-10-18T03:48:43.466Z,69.78
2022-10-18T03:54:14.777Z,70.07
2022-10-18T03:59:45.642Z,70.18
2022-10-18T04:05:16.748Z,70.15
2022-10-18T04:10:48.098Z,70.34
2022-10-18T04:16:19.442Z,70.13
2022-10-18T04:21:50.693Z,70.20
2022-10-18T04:27:22.051Z,70.36
2022-10-18T04:32:52.934Z,70.52
2022-10-18T04:38:24.023Z,70.21
2022-10-18T04:43:55.319Z,70.36
2022-10-18T04:49:26.182Z,70.49
2022-10-18T04:54:57.061Z,70.03
2022-10-18T05:00:27.723Z,70.03
2022-10-18T05:06:03.140Z,70.28
2022-10-18T05:11:34.881Z,70.32
2022-10-18T05:17:06.815Z,70.22
2022-10-18T05:22:37.784Z,70.39
2022-10-18T05:28:11.104Z,70.53
2022-10-18T05:33:46.535Z,70.60
2022-10-18T05:39:17.492Z,70.52
2022-10-18T05:44:48.810Z,70.14
2022-10-18T05:50:19.920Z,70.12
2022-10-18T05:55:50.971Z,70.47
2022-10-18T06:01:22.500Z,70.17
2022-10-18T06:06:54.199Z,70.38
2022-10-18T06:12:25.225Z,70.56
2022-10-18T06:17:56.447Z,70.39
2022-10-18T06:23:28.218Z,70.09
2022-10-18T06:28:59.509Z,70.19
2022-10-18T06:34:31.204Z,69.81
2022-10-18T06:40:02.234Z,70.23
2022-10-18T06:45:33.691Z,70.12
2022-10-18T06:51:06.392Z,70.32
2022-10-18T06:56:37.461Z,69.77
2022-10-18T07:02:10.360Z,69.87
2022-10-18T07:07:41.550Z,70.08
2022-10-18T07:13:31.605Z,70.29
2022-10-18T07:19:03.956Z,70.22
2022-10-18T07:24:35.482Z,70.18
2022-10-18T07:30:08.444Z,70.16
2022-10-18T07:35:39.478Z,69.84
2022-10-18T07:41:12.333Z,70.10
2022-10-18T07:46:43.384Z,69.88
2022-10-18T07:52:14.392Z,69.50
2022-10-18T07:57:45.289Z,69.86
2022-10-18T08:03:16.411Z,69.68
2022-10-18T08:08:47.493Z,69.52
2022-10-18T08:14:18.769Z,69.48
2022-10-18T08:20:04.709Z,69.37
2022-10-18T08:25:41.121Z,69.29
2022-10-18T08:31:14.383Z,69.21
2022-10-18T08:36:45.634Z,69.20
2022-10-18T08:42:23.904Z,69.24
2022-10-18T08:47:57.756Z,68.95
2022-10-18T08:53:41.130Z,69.15
2022-10-18T08:59:13.211Z,69.28
2022-10-18T09:04:49.890Z,69.14
2022-10-18T09:10:44.929Z,69.00
2022-10-18T09:16:28.913Z,69.17
2022-10-18T09:22:10.713Z,69.02
2022-10-18T09:27:53.958Z,68.77
2022-10-18T09:33:39.667Z,69.04
2022-10-18T09:39:16.026Z,69.11
2022-10-18T09:45:04.379Z,69.28
2022-10-18T09:50:53.782Z,69.50
2022-10-18T09:56:30.927Z,69.21
2022-10-18T10:02:02.230Z,69.17
2022-10-18T10:07:43.609Z,69.24
2022-10-18T10:13:18.017Z,69.17
2022-10-18T10:18:54.099Z,69.27
2022-10-18T10:24:46.800Z,69.31
2022-10-18T10:30:28.908Z,69.40
2022-10-18T10:36:00.887Z,69.11
2022-10-18T10:47:03.903Z,69.39
2022-10-18T10:52:35.107Z,69.59
2022-10-18T10:58:14.705Z,69.43
2022-10-18T11:03:48.232Z,69.87
2022-10-18T11:09:28.495Z,69.96
2022-10-18T11:15:10.391Z,69.85
2022-10-18T11:20:57.095Z,69.92
2022-10-18T11:27:09.081Z,69.79
2022-10-18T11:33:00.916Z,69.96
2022-10-18T11:38:42.380Z,69.62
2022-10-18T11:44:19.324Z,69.81
2022-10-18T11:50:02.978Z,69.81
2022-10-18T11:55:36.747Z,69.73
2022-10-18T12:01:34.617Z,69.88
2022-10-18T12:07:07.826Z,69.56
2022-10-18T12:13:02.308Z,69.69
2022-10-18T12:18:46.497Z,69.83
2022-10-18T12:24:25.685Z,69.96
2022-10-18T12:30:04.572Z,69.79
2022-10-18T12:35:54.678Z,69.76
2022-10-18T12:41:34.358Z,70.01
2022-10-18T12:47:06.108Z,69.98
2022-10-18T12:52:37.413Z,69.97
2022-10-18T12:58:15.017Z,70.22
2022-10-18T13:03:55.141Z,70.27
2022-10-18T13:09:40.778Z,70.53
2022-10-18T13:15:26.292Z,70.42
2022-10-18T13:21:17.607Z,70.77
2022-10-18T13:27:24.054Z,70.73
2022-10-18T13:33:22.357Z,70.68
2022-10-18T13:39:02.763Z,70.76
2022-10-18T13:44:38.048Z,70.96
2022-10-18T13:50:30.453Z,70.99
2022-10-18T13:56:13.856Z,70.87
2022-10-18T14:02:49.885Z,70.66
2022-10-18T14:08:21.290Z,70.77
2022-10-18T14:14:00.401Z,70.91
2022-10-18T14:19:44.986Z,71.04
2022-10-18T14:25:20.528Z,70.90
2022-10-18T14:30:58.269Z,70.85
2022-10-18T14:36:41.985Z,70.33
2022-10-18T14:42:21.323Z,70.58
2022-10-18T14:47:52.415Z,70.30
2022-10-18T14:53:25.398Z,70.73
2022-10-18T14:59:03.262Z,70.16
2022-10-18T15:04:34.426Z,70.25
2022-10-18T15:10:11.159Z,70.21
2022-10-18T15:15:47.411Z,70.21
2022-10-18T15:21:24.203Z,70.79
2022-10-18T15:27:00.117Z,70.45
2022-10-18T15:32:32.042Z,70.79
2022-10-18T15:38:26.386Z,70.84
2022-10-18T15:44:11.560Z,70.94
2022-10-18T15:49:45.387Z,70.74
2022-10-18T15:55:31.730Z,70.99
2022-10-18T16:01:04.612Z,70.77
2022-10-18T16:06:39.023Z,70.63
2022-10-18T16:12:10.341Z,70.96
2022-10-18T16:17:41.818Z,70.60
2022-10-18T16:23:22.706Z,70.89
2022-10-18T16:28:55.110Z,70.79
2022-10-18T16:34:27.509Z,70.73
2022-10-18T16:39:58.691Z,70.73
2022-10-18T16:45:30.016Z,70.93
2022-10-18T16:51:01.242Z,70.82
2022-10-18T16:56:32.874Z,70.76
2022-10-18T17:02:09.290Z,71.22
2022-10-18T17:07:40.171Z,71.00
2022-10-18T17:13:11.739Z,70.83
2022-10-18T17:18:42.835Z,71.04
2022-10-18T17:24:14.102Z,71.09
2022-10-18T17:29:45.207Z,71.45
2022-10-18T17:35:16.502Z,71.57
2022-10-18T17:40:52.935Z,71.53
2022-10-18T17:46:24.228Z,71.50
2022-10-18T17:51:55.492Z,71.70
2022-10-18T17:57:26.849Z,71.65
2022-10-18T18:02:59.343Z,71.51
2022-10-18T18:08:31.390Z,71.38
2022-10-18T18:14:03.125Z,71.24
2022-10-18T18:19:34.881Z,71.73
2022-10-18T18:25:06.496Z,71.37
2022-10-18T18:30:40.084Z,71.37
2022-10-18T18:36:11.650Z,71.48
2022-10-18T18:41:42.759Z,71.41
2022-10-18T18:47:13.932Z,71.45
2022-10-18T18:52:45.100Z,71.79
2022-10-18T18:58:16.736Z,71.89
2022-10-18T19:03:49.901Z,71.78
2022-10-18T19:09:24.125Z,71.79
2022-10-18T19:14:55.162Z,71.58
2022-10-18T19:20:26.117Z,72.04
2022-10-18T19:26:12.321Z,71.87
2022-10-18T19:31:43.402Z,71.88
2022-10-18T19:37:15.795Z,71.62
2022-10-18T19:42:46.877Z,71.76
2022-10-18T19:48:17.824Z,71.55
2022-10-18T19:53:48.985Z,71.65
2022-10-18T19:59:22.814Z,71.46
2022-10-18T20:04:54.366Z,71.41
2022-10-18T20:10:25.224Z,71.20
2022-10-18T20:15:56.184Z,71.20
2022-10-18T20:21:28.711Z,71.36
2022-10-18T20:27:00.130Z,71.23
2022-10-18T20:32:31.165Z,71.11
2022-10-18T20:38:02.130Z,71.30
2022-10-18T20:43:34.764Z,71.02
2022-10-18T20:49:07.370Z,71.30
2022-10-18T20:54:38.229Z,71.10
2022-10-18T21:00:11.765Z,71.02
2022-10-18T21:05:42.538Z,71.01
2022-10-18T21:11:14.283Z,70.98
2022-10-18T21:16:45.811Z,71.00
2022-10-18T21:22:17.056Z,70.86
2022-10-18T21:27:47.947Z,70.85
2022-10-18T21:33:18.824Z,70.94
2022-10-18T21:38:49.833Z,70.96
2022-10-18T21:44:20.967Z,70.80
2022-10-18T21:49:52.294Z,70.98
2022-10-18T21:55:23.637Z,70.82
2022-10-18T22:00:54.877Z,70.91
2022-10-18T22:06:29.464Z,70.61
2022-10-18T22:12:00.982Z,70.66
2022-10-18T22:17:32.532Z,70.90
2022-10-18T22:23:04.325Z,70.59
2022-10-18T22:28:36.175Z,70.79
2022-10-18T22:34:18.261Z,70.55
2022-10-18T22:39:49.464Z,70.46
2022-10-18T22:45:20.297Z,70.47
2022-10-18T22:50:51.296Z,70.45
2022-10-18T22:56:23.690Z,70.49
2022-10-18T23:01:54.722Z,70.53
2022-10-18T23:07:25.536Z,70.46
2022-10-18T23:12:56.552Z,70.31
2022-10-18T23:18:27.641Z,70.31
2022-10-18T23:23:58.584Z,70.29
2022-10-18T23:29:29.824Z,70.71
2022-10-18T23:35:00.935Z,70.45
2022-10-18T23:40:31.830Z,69.96
2022-10-18T23:46:02.839Z,70.41
2022-10-18T23:51:34.060Z,69.98
2022-10-18T23:57:05.075Z,70.13
